Terminal Aerodrome Forecast
Issued by NWS

Home | Current Version | Previous Version | Text Only | Print | Product List | Glossary On
Versions: 1 2 3 4 5 6 7 8 9 10 11 12 13 14
625
FTUS42 KMLB 231725
TAFISM
TAF
KISM 231725Z 2318/2418 22013G22KT P6SM VCTS SCT035CB BKN040 BKN120
     FM232300 23011KT P6SM SCT040 BKN250
     FM241400 21015G23KT P6SM VCTS SCT020 SCT035CB BKN060
      TEMPO 2414/2417 VRB15G30KT 2SM TSRA BKN015 BKN025CB=

USA.gov is the U.S. government's official web portal to all federal, state and local government web resources and services.